Terminal Aerodrome Forecast
Issued by NWS

Home | Current Version | Previous Version | Text Only | Print | Product List | Glossary On
Versions: 1 2 3 4 5 6 7 8 9 10 11 12 13 14 15
443
FTUS43 KGRB 041442 AAA
TAFAUW
TAF AMD
KAUW 041442Z 0415/0512 14005KT 1SM -SN SCT008 OVC025
     FM041600 15007KT 1SM -SN OVC008
      TEMPO 0416/0420 3/4SM -SN OVC005
     FM042300 16008KT 2SM -SN OVC008
      TEMPO 0500/0502 4SM -SN
     FM050300 23006KT P6SM OVC007
     FM050500 25006KT P6SM BKN014 OVC020=

USA.gov is the U.S. government's official web portal to all federal, state and local government web resources and services.